sensor_id;sensor_type;location;lat;lon;timestamp;temperature;humidity
4964;DHT22;2497;47.410;9.740;2023-03-16T00:00:20;2.60;99.90
4964;DHT22;2497;47.410;9.740;2023-03-16T00:02:47;2.60;99.90
4964;DHT22;2497;47.410;9.740;2023-03-16T00:05:14;2.60;99.90
4964;DHT22;2497;47.410;9.740;2023-03-16T00:07:41;2.60;99.90
4964;DHT22;2497;47.410;9.740;2023-03-16T00:10:10;2.50;99.90
4964;DHT22;2497;47.410;9.740;2023-03-16T00:12:38;2.50;99.90
4964;DHT22;2497;47.410;9.740;2023-03-16T00:15:08;2.50;99.90
4964;DHT22;2497;47.410;9.740;2023-03-16T00:17:37;2.40;99.90
4964;DHT22;2497;47.410;9.740;2023-03-16T00:20:05;2.30;99.90
4964;DHT22;2497;47.410;9.740;2023-03-16T00:22:33;2.30;99.90
4964;DHT22;2497;47.410;9.740;2023-03-16T00:25:00;2.30;99.90
4964;DHT22;2497;47.410;9.740;2023-03-16T00:27:29;2.30;99.90
4964;DHT22;2497;47.410;9.740;2023-03-16T00:29:56;2.40;99.90
4964;DHT22;2497;47.410;9.740;2023-03-16T00:32:25;2.30;99.90
4964;DHT22;2497;47.410;9.740;2023-03-16T00:34:54;2.30;99.90
4964;DHT22;2497;47.410;9.740;2023-03-16T00:37:22;2.30;99.90
4964;DHT22;2497;47.410;9.740;2023-03-16T00:39:50;2.20;99.90
4964;DHT22;2497;47.410;9.740;2023-03-16T00:42:18;2.10;99.90
4964;DHT22;2497;47.410;9.740;2023-03-16T00:44:46;2.10;99.90
4964;DHT22;2497;47.410;9.740;2023-03-16T00:47:13;2.00;99.90
4964;DHT22;2497;47.410;9.740;2023-03-16T00:49:42;2.00;99.90
4964;DHT22;2497;47.410;9.740;2023-03-16T00:52:12;2.00;99.90
4964;DHT22;2497;47.410;9.740;2023-03-16T00:54:41;2.00;99.90
4964;DHT22;2497;47.410;9.740;2023-03-16T00:57:10;1.90;99.90
4964;DHT22;2497;47.410;9.740;2023-03-16T00:59:38;1.90;99.90
4964;DHT22;2497;47.410;9.740;2023-03-16T01:02:06;1.80;99.90
4964;DHT22;2497;47.410;9.740;2023-03-16T01:04:34;1.80;99.90
4964;DHT22;2497;47.410;9.740;2023-03-16T01:07:02;1.80;99.90
4964;DHT22;2497;47.410;9.740;2023-03-16T01:09:30;1.80;99.90
4964;DHT22;2497;47.410;9.740;2023-03-16T01:12:02;1.80;99.90
4964;DHT22;2497;47.410;9.740;2023-03-16T01:14:31;1.80;99.90
4964;DHT22;2497;47.410;9.740;2023-03-16T01:16:59;1.80;99.90
4964;DHT22;2497;47.410;9.740;2023-03-16T01:19:26;1.80;99.90
4964;DHT22;2497;47.410;9.740;2023-03-16T01:21:54;1.70;99.90
4964;DHT22;2497;47.410;9.740;2023-03-16T01:24:21;1.70;99.90
4964;DHT22;2497;47.410;9.740;2023-03-16T01:26:51;1.80;99.90
4964;DHT22;2497;47.410;9.740;2023-03-16T01:29:19;1.80;99.90
4964;DHT22;2497;47.410;9.740;2023-03-16T01:31:46;1.80;99.90
4964;DHT22;2497;47.410;9.740;2023-03-16T01:34:14;1.70;99.90
4964;DHT22;2497;47.410;9.740;2023-03-16T01:36:43;1.70;99.90
4964;DHT22;2497;47.410;9.740;2023-03-16T01:39:12;1.70;99.90
4964;DHT22;2497;47.410;9.740;2023-03-16T01:41:42;1.70;99.90
4964;DHT22;2497;47.410;9.740;2023-03-16T01:44:12;1.80;99.90
4964;DHT22;2497;47.410;9.740;2023-03-16T01:46:39;1.70;99.90
4964;DHT22;2497;47.410;9.740;2023-03-16T01:49:11;1.60;99.90
4964;DHT22;2497;47.410;9.740;2023-03-16T01:51:41;1.60;99.90
4964;DHT22;2497;47.410;9.740;2023-03-16T01:54:14;1.60;99.90
4964;DHT22;2497;47.410;9.740;2023-03-16T01:56:47;1.60;99.90
4964;DHT22;2497;47.410;9.740;2023-03-16T01:59:20;1.60;99.90
4964;DHT22;2497;47.410;9.740;2023-03-16T02:01:48;1.60;99.90
4964;DHT22;2497;47.410;9.740;2023-03-16T02:04:25;1.60;99.90
4964;DHT22;2497;47.410;9.740;2023-03-16T02:06:56;1.60;99.90
4964;DHT22;2497;47.410;9.740;2023-03-16T02:09:24;1.50;99.90
4964;DHT22;2497;47.410;9.740;2023-03-16T02:11:52;1.60;99.90
4964;DHT22;2497;47.410;9.740;2023-03-16T02:14:22;1.50;99.90
4964;DHT22;2497;47.410;9.740;2023-03-16T02:16:49;1.50;99.90
4964;DHT22;2497;47.410;9.740;2023-03-16T02:19:26;1.40;99.90
4964;DHT22;2497;47.410;9.740;2023-03-16T02:22:00;1.40;99.90
4964;DHT22;2497;47.410;9.740;2023-03-16T02:24:28;1.40;99.90
4964;DHT22;2497;47.410;9.740;2023-03-16T02:26:59;1.40;99.90
4964;DHT22;2497;47.410;9.740;2023-03-16T02:29:55;1.40;99.90
4964;DHT22;2497;47.410;9.740;2023-03-16T02:32:25;1.40;99.90
4964;DHT22;2497;47.410;9.740;2023-03-16T02:34:53;1.40;99.90
4964;DHT22;2497;47.410;9.740;2023-03-16T02:37:21;1.40;99.90
4964;DHT22;2497;47.410;9.740;2023-03-16T02:39:48;1.40;99.90
4964;DHT22;2497;47.410;9.740;2023-03-16T02:42:18;1.40;99.90
4964;DHT22;2497;47.410;9.740;2023-03-16T02:44:49;1.30;99.90
4964;DHT22;2497;47.410;9.740;2023-03-16T02:47:24;1.40;99.90
4964;DHT22;2497;47.410;9.740;2023-03-16T02:49:53;1.40;99.90
4964;DHT22;2497;47.410;9.740;2023-03-16T02:52:20;1.30;99.90
4964;DHT22;2497;47.410;9.740;2023-03-16T02:54:47;1.20;99.90
4964;DHT22;2497;47.410;9.740;2023-03-16T02:57:14;1.20;99.90
4964;DHT22;2497;47.410;9.740;2023-03-16T02:59:41;1.20;99.90
4964;DHT22;2497;47.410;9.740;2023-03-16T03:02:10;1.20;99.90
4964;DHT22;2497;47.410;9.740;2023-03-16T03:04:37;1.10;99.90
4964;DHT22;2497;47.410;9.740;2023-03-16T03:07:04;1.10;99.90
4964;DHT22;2497;47.410;9.740;2023-03-16T03:09:31;1.20;99.90
4964;DHT22;2497;47.410;9.740;2023-03-16T03:11:58;1.30;99.90
4964;DHT22;2497;47.410;9.740;2023-03-16T03:14:26;1.30;99.90
4964;DHT22;2497;47.410;9.740;2023-03-16T03:16:54;1.30;99.90
4964;DHT22;2497;47.410;9.740;2023-03-16T03:19:23;1.30;99.90
4964;DHT22;2497;47.410;9.740;2023-03-16T03:21:50;1.30;99.90
4964;DHT22;2497;47.410;9.740;2023-03-16T03:24:22;1.40;99.90
4964;DHT22;2497;47.410;9.740;2023-03-16T03:26:49;1.40;99.90
4964;DHT22;2497;47.410;9.740;2023-03-16T03:29:17;1.40;99.90
4964;DHT22;2497;47.410;9.740;2023-03-16T03:31:45;1.60;99.90
4964;DHT22;2497;47.410;9.740;2023-03-16T03:34:12;1.70;99.90
4964;DHT22;2497;47.410;9.740;2023-03-16T03:36:40;1.70;99.90
4964;DHT22;2497;47.410;9.740;2023-03-16T03:39:07;1.70;99.90
4964;DHT22;2497;47.410;9.740;2023-03-16T03:41:34;1.70;99.90
4964;DHT22;2497;47.410;9.740;2023-03-16T03:44:03;1.60;99.90
4964;DHT22;2497;47.410;9.740;2023-03-16T03:46:30;1.60;99.90
4964;DHT22;2497;47.410;9.740;2023-03-16T03:48:57;1.60;99.90
4964;DHT22;2497;47.410;9.740;2023-03-16T03:51:28;1.40;99.90
4964;DHT22;2497;47.410;9.740;2023-03-16T03:53:58;1.40;99.90
4964;DHT22;2497;47.410;9.740;2023-03-16T03:56:25;1.30;99.90
4964;DHT22;2497;47.410;9.740;2023-03-16T03:58:52;1.10;99.90
4964;DHT22;2497;47.410;9.740;2023-03-16T04:01:20;1.00;99.90
4964;DHT22;2497;47.410;9.740;2023-03-16T04:03:47;0.90;99.90
4964;DHT22;2497;47.410;9.740;2023-03-16T04:06:14;0.90;99.90
4964;DHT22;2497;47.410;9.740;2023-03-16T04:08:41;0.90;99.90
4964;DHT22;2497;47.410;9.740;2023-03-16T04:11:10;0.90;99.90
4964;DHT22;2497;47.410;9.740;2023-03-16T04:13:37;0.90;99.90
4964;DHT22;2497;47.410;9.740;2023-03-16T04:16:05;0.90;99.90
4964;DHT22;2497;47.410;9.740;2023-03-16T04:18:32;1.00;99.90
4964;DHT22;2497;47.410;9.740;2023-03-16T04:21:04;0.90;99.90
4964;DHT22;2497;47.410;9.740;2023-03-16T04:23:32;0.90;99.90
4964;DHT22;2497;47.410;9.740;2023-03-16T04:26:00;0.90;99.90
4964;DHT22;2497;47.410;9.740;2023-03-16T04:28:28;0.90;99.90
4964;DHT22;2497;47.410;9.740;2023-03-16T04:31:00;0.80;99.90
4964;DHT22;2497;47.410;9.740;2023-03-16T04:33:28;0.80;99.90
4964;DHT22;2497;47.410;9.740;2023-03-16T04:35:55;0.70;99.90
4964;DHT22;2497;47.410;9.740;2023-03-16T04:38:22;0.60;99.90
4964;DHT22;2497;47.410;9.740;2023-03-16T04:40:49;0.50;99.90
4964;DHT22;2497;47.410;9.740;2023-03-16T04:43:16;0.50;99.90
4964;DHT22;2497;47.410;9.740;2023-03-16T04:45:45;0.60;99.90
4964;DHT22;2497;47.410;9.740;2023-03-16T04:48:12;0.60;99.90
4964;DHT22;2497;47.410;9.740;2023-03-16T04:50:39;0.50;99.90
4964;DHT22;2497;47.410;9.740;2023-03-16T04:53:07;0.50;99.90
4964;DHT22;2497;47.410;9.740;2023-03-16T04:55:34;0.60;99.90
4964;DHT22;2497;47.410;9.740;2023-03-16T04:58:01;0.70;99.90
4964;DHT22;2497;47.410;9.740;2023-03-16T05:00:29;0.70;99.90
4964;DHT22;2497;47.410;9.740;2023-03-16T05:02:58;0.70;99.90
4964;DHT22;2497;47.410;9.740;2023-03-16T05:05:25;0.70;99.90
4964;DHT22;2497;47.410;9.740;2023-03-16T05:07:52;0.60;99.90
4964;DHT22;2497;47.410;9.740;2023-03-16T05:10:19;0.70;99.90
4964;DHT22;2497;47.410;9.740;2023-03-16T05:12:47;0.60;99.90
4964;DHT22;2497;47.410;9.740;2023-03-16T05:15:14;0.70;99.90
4964;DHT22;2497;47.410;9.740;2023-03-16T05:17:41;0.70;99.90
4964;DHT22;2497;47.410;9.740;2023-03-16T05:20:11;0.80;99.90
4964;DHT22;2497;47.410;9.740;2023-03-16T05:22:40;0.70;99.90
4964;DHT22;2497;47.410;9.740;2023-03-16T05:25:08;0.80;99.90
4964;DHT22;2497;47.410;9.740;2023-03-16T05:27:39;0.70;99.90
4964;DHT22;2497;47.410;9.740;2023-03-16T05:30:08;0.70;99.90
4964;DHT22;2497;47.410;9.740;2023-03-16T05:32:36;0.70;99.90
4964;DHT22;2497;47.410;9.740;2023-03-16T05:35:05;0.70;99.90
4964;DHT22;2497;47.410;9.740;2023-03-16T05:37:34;0.60;99.90
4964;DHT22;2497;47.410;9.740;2023-03-16T05:40:03;0.70;99.90
4964;DHT22;2497;47.410;9.740;2023-03-16T05:42:36;0.70;99.90
4964;DHT22;2497;47.410;9.740;2023-03-16T05:45:04;0.80;99.90
4964;DHT22;2497;47.410;9.740;2023-03-16T05:47:32;0.80;99.90
4964;DHT22;2497;47.410;9.740;2023-03-16T05:50:01;0.90;99.90
4964;DHT22;2497;47.410;9.740;2023-03-16T05:52:28;0.80;99.90
4964;DHT22;2497;47.410;9.740;2023-03-16T05:54:56;0.80;99.90
4964;DHT22;2497;47.410;9.740;2023-03-16T05:57:23;0.80;99.90
4964;DHT22;2497;47.410;9.740;2023-03-16T05:59:51;0.80;99.90
4964;DHT22;2497;47.410;9.740;2023-03-16T06:02:19;0.80;99.90
4964;DHT22;2497;47.410;9.740;2023-03-16T06:04:47;0.80;99.90
4964;DHT22;2497;47.410;9.740;2023-03-16T06:07:14;0.80;99.90
4964;DHT22;2497;47.410;9.740;2023-03-16T06:09:41;0.90;99.90
4964;DHT22;2497;47.410;9.740;2023-03-16T06:12:10;0.90;99.90
4964;DHT22;2497;47.410;9.740;2023-03-16T06:14:38;1.00;99.90
4964;DHT22;2497;47.410;9.740;2023-03-16T06:17:05;1.00;99.90
4964;DHT22;2497;47.410;9.740;2023-03-16T06:19:33;1.00;99.90
4964;DHT22;2497;47.410;9.740;2023-03-16T06:22:00;1.00;99.90
4964;DHT22;2497;47.410;9.740;2023-03-16T06:24:27;1.00;99.90
4964;DHT22;2497;47.410;9.740;2023-03-16T06:26:54;0.90;99.90
4964;DHT22;2497;47.410;9.740;2023-03-16T06:29:23;1.00;99.90
4964;DHT22;2497;47.410;9.740;2023-03-16T06:31:50;1.10;99.90
4964;DHT22;2497;47.410;9.740;2023-03-16T06:34:17;1.10;99.90
4964;DHT22;2497;47.410;9.740;2023-03-16T06:36:44;1.10;99.90
4964;DHT22;2497;47.410;9.740;2023-03-16T06:39:11;1.20;99.90
4964;DHT22;2497;47.410;9.740;2023-03-16T06:41:39;1.30;99.90
4964;DHT22;2497;47.410;9.740;2023-03-16T06:44:09;1.40;99.90
4964;DHT22;2497;47.410;9.740;2023-03-16T06:46:40;1.70;99.90
4964;DHT22;2497;47.410;9.740;2023-03-16T06:49:07;2.20;99.90
4964;DHT22;2497;47.410;9.740;2023-03-16T06:51:34;2.70;99.90
4964;DHT22;2497;47.410;9.740;2023-03-16T06:54:02;3.20;99.90
4964;DHT22;2497;47.410;9.740;2023-03-16T06:56:29;3.90;99.90
4964;DHT22;2497;47.410;9.740;2023-03-16T06:58:56;4.60;99.90
4964;DHT22;2497;47.410;9.740;2023-03-16T07:01:23;5.10;99.90
4964;DHT22;2497;47.410;9.740;2023-03-16T07:03:52;5.60;99.90
4964;DHT22;2497;47.410;9.740;2023-03-16T07:06:19;5.90;99.90
4964;DHT22;2497;47.410;9.740;2023-03-16T07:08:46;6.30;99.90
4964;DHT22;2497;47.410;9.740;2023-03-16T07:11:13;6.60;99.90
4964;DHT22;2497;47.410;9.740;2023-03-16T07:13:40;7.10;99.90
4964;DHT22;2497;47.410;9.740;2023-03-16T07:16:08;7.40;99.90
4964;DHT22;2497;47.410;9.740;2023-03-16T07:18:35;7.30;99.90
4964;DHT22;2497;47.410;9.740;2023-03-16T07:21:06;7.30;99.90
4964;DHT22;2497;47.410;9.740;2023-03-16T07:23:33;6.60;99.90
4964;DHT22;2497;47.410;9.740;2023-03-16T07:26:00;6.00;99.90
4964;DHT22;2497;47.410;9.740;2023-03-16T07:28:28;5.70;99.90
4964;DHT22;2497;47.410;9.740;2023-03-16T07:30:56;5.90;99.90
4964;DHT22;2497;47.410;9.740;2023-03-16T07:33:23;6.00;99.90
4964;DHT22;2497;47.410;9.740;2023-03-16T07:35:51;5.60;99.90
4964;DHT22;2497;47.410;9.740;2023-03-16T07:38:19;6.20;99.90
4964;DHT22;2497;47.410;9.740;2023-03-16T07:40:46;7.00;99.90
4964;DHT22;2497;47.410;9.740;2023-03-16T07:43:13;7.80;99.90
4964;DHT22;2497;47.410;9.740;2023-03-16T07:45:40;7.50;99.90
4964;DHT22;2497;47.410;9.740;2023-03-16T07:48:07;6.90;99.90
4964;DHT22;2497;47.410;9.740;2023-03-16T07:50:34;6.70;99.90
4964;DHT22;2497;47.410;9.740;2023-03-16T07:53:02;6.20;99.90
4964;DHT22;2497;47.410;9.740;2023-03-16T07:55:31;6.40;99.90
4964;DHT22;2497;47.410;9.740;2023-03-16T07:58:01;6.90;99.90
4964;DHT22;2497;47.410;9.740;2023-03-16T08:00:29;6.50;99.90
4964;DHT22;2497;47.410;9.740;2023-03-16T08:02:56;6.70;99.90
4964;DHT22;2497;47.410;9.740;2023-03-16T08:05:24;8.30;99.90
4964;DHT22;2497;47.410;9.740;2023-03-16T08:07:51;9.30;99.90
4964;DHT22;2497;47.410;9.740;2023-03-16T08:10:18;8.70;99.90
4964;DHT22;2497;47.410;9.740;2023-03-16T08:12:47;9.60;99.90
4964;DHT22;2497;47.410;9.740;2023-03-16T08:15:14;10.50;99.90
4964;DHT22;2497;47.410;9.740;2023-03-16T08:17:41;9.10;99.90
4964;DHT22;2497;47.410;9.740;2023-03-16T08:20:09;8.80;99.90
4964;DHT22;2497;47.410;9.740;2023-03-16T08:22:39;9.40;99.90
4964;DHT22;2497;47.410;9.740;2023-03-16T08:25:07;9.80;99.90
4964;DHT22;2497;47.410;9.740;2023-03-16T08:27:36;10.50;99.90
4964;DHT22;2497;47.410;9.740;2023-03-16T08:30:08;10.40;99.90
4964;DHT22;2497;47.410;9.740;2023-03-16T08:32:36;10.10;99.90
4964;DHT22;2497;47.410;9.740;2023-03-16T08:35:05;10.70;99.90
4964;DHT22;2497;47.410;9.740;2023-03-16T08:37:32;11.40;99.90
4964;DHT22;2497;47.410;9.740;2023-03-16T08:39:59;11.80;99.90
4964;DHT22;2497;47.410;9.740;2023-03-16T08:42:27;11.50;99.90
4964;DHT22;2497;47.410;9.740;2023-03-16T08:44:54;11.10;99.90
4964;DHT22;2497;47.410;9.740;2023-03-16T08:47:23;10.90;99.90
4964;DHT22;2497;47.410;9.740;2023-03-16T08:49:51;10.30;99.90
4964;DHT22;2497;47.410;9.740;2023-03-16T08:52:18;9.80;99.90
4964;DHT22;2497;47.410;9.740;2023-03-16T08:54:45;9.20;99.90
4964;DHT22;2497;47.410;9.740;2023-03-16T08:57:12;8.60;99.90
4964;DHT22;2497;47.410;9.740;2023-03-16T08:59:40;9.00;99.90
4964;DHT22;2497;47.410;9.740;2023-03-16T09:02:10;9.20;99.90
4964;DHT22;2497;47.410;9.740;2023-03-16T09:04:39;9.50;99.90
4964;DHT22;2497;47.410;9.740;2023-03-16T09:07:07;9.30;99.90
4964;DHT22;2497;47.410;9.740;2023-03-16T09:09:34;9.10;99.90
4964;DHT22;2497;47.410;9.740;2023-03-16T09:12:02;8.80;99.90
4964;DHT22;2497;47.410;9.740;2023-03-16T09:14:30;8.50;99.90
4964;DHT22;2497;47.410;9.740;2023-03-16T09:16:57;9.00;99.90
4964;DHT22;2497;47.410;9.740;2023-03-16T09:19:25;9.10;99.90
4964;DHT22;2497;47.410;9.740;2023-03-16T09:21:53;8.70;99.90
4964;DHT22;2497;47.410;9.740;2023-03-16T09:24:20;9.10;99.90
4964;DHT22;2497;47.410;9.740;2023-03-16T09:26:49;9.30;99.90
4964;DHT22;2497;47.410;9.740;2023-03-16T09:29:16;9.10;99.90
4964;DHT22;2497;47.410;9.740;2023-03-16T09:31:43;9.00;99.90
4964;DHT22;2497;47.410;9.740;2023-03-16T09:34:10;9.10;99.90
4964;DHT22;2497;47.410;9.740;2023-03-16T09:36:38;9.40;99.90
4964;DHT22;2497;47.410;9.740;2023-03-16T09:39:07;9.50;99.90
4964;DHT22;2497;47.410;9.740;2023-03-16T09:41:44;9.30;99.90
4964;DHT22;2497;47.410;9.740;2023-03-16T09:44:25;9.50;99.90
4964;DHT22;2497;47.410;9.740;2023-03-16T09:46:58;9.90;99.90
4964;DHT22;2497;47.410;9.740;2023-03-16T09:49:30;10.50;99.90
4964;DHT22;2497;47.410;9.740;2023-03-16T09:52:05;11.60;99.90
4964;DHT22;2497;47.410;9.740;2023-03-16T09:54:44;12.30;99.90
4964;DHT22;2497;47.410;9.740;2023-03-16T09:57:23;12.50;99.90
4964;DHT22;2497;47.410;9.740;2023-03-16T09:59:51;13.10;99.90
4964;DHT22;2497;47.410;9.740;2023-03-16T10:05:21;12.30;99.90
4964;DHT22;2497;47.410;9.740;2023-03-16T10:07:52;12.50;99.90
4964;DHT22;2497;47.410;9.740;2023-03-16T10:10:54;12.10;99.90
4964;DHT22;2497;47.410;9.740;2023-03-16T10:13:32;11.90;99.90
4964;DHT22;2497;47.410;9.740;2023-03-16T10:16:06;11.50;99.90
4964;DHT22;2497;47.410;9.740;2023-03-16T10:18:39;12.00;99.90
4964;DHT22;2497;47.410;9.740;2023-03-16T10:21:11;13.10;99.90
4964;DHT22;2497;47.410;9.740;2023-03-16T10:23:40;12.90;99.90
4964;DHT22;2497;47.410;9.740;2023-03-16T10:26:20;12.50;99.90
4964;DHT22;2497;47.410;9.740;2023-03-16T10:28:48;12.10;99.90
4964;DHT22;2497;47.410;9.740;2023-03-16T10:31:16;12.00;99.90
4964;DHT22;2497;47.410;9.740;2023-03-16T10:33:47;11.80;99.90
4964;DHT22;2497;47.410;9.740;2023-03-16T10:36:23;11.70;99.90
4964;DHT22;2497;47.410;9.740;2023-03-16T10:38:57;11.80;99.90
4964;DHT22;2497;47.410;9.740;2023-03-16T10:41:30;11.30;99.90
4964;DHT22;2497;47.410;9.740;2023-03-16T10:43:59;11.70;99.90
4964;DHT22;2497;47.410;9.740;2023-03-16T10:46:36;12.10;99.90
4964;DHT22;2497;47.410;9.740;2023-03-16T10:49:03;12.40;99.90
4964;DHT22;2497;47.410;9.740;2023-03-16T10:51:32;12.70;99.90
4964;DHT22;2497;47.410;9.740;2023-03-16T10:54:07;12.50;99.90
4964;DHT22;2497;47.410;9.740;2023-03-16T10:56:37;12.80;99.90
4964;DHT22;2497;47.410;9.740;2023-03-16T10:59:27;13.50;99.90
4964;DHT22;2497;47.410;9.740;2023-03-16T11:01:56;13.70;99.90
4964;DHT22;2497;47.410;9.740;2023-03-16T11:04:24;14.00;99.90
4964;DHT22;2497;47.410;9.740;2023-03-16T11:06:54;14.10;99.90
4964;DHT22;2497;47.410;9.740;2023-03-16T11:09:25;13.90;99.90
4964;DHT22;2497;47.410;9.740;2023-03-16T11:12:00;14.30;99.90
4964;DHT22;2497;47.410;9.740;2023-03-16T11:14:42;15.10;99.90
4964;DHT22;2497;47.410;9.740;2023-03-16T11:17:12;14.60;99.90
4964;DHT22;2497;47.410;9.740;2023-03-16T11:19:45;14.60;99.90
4964;DHT22;2497;47.410;9.740;2023-03-16T11:22:15;15.00;99.90
4964;DHT22;2497;47.410;9.740;2023-03-16T11:24:47;15.50;99.90
4964;DHT22;2497;47.410;9.740;2023-03-16T11:27:22;16.60;99.90
4964;DHT22;2497;47.410;9.740;2023-03-16T11:30:02;17.60;99.90
4964;DHT22;2497;47.410;9.740;2023-03-16T11:32:33;17.90;99.90
4964;DHT22;2497;47.410;9.740;2023-03-16T11:35:05;17.30;99.90
4964;DHT22;2497;47.410;9.740;2023-03-16T11:37:50;17.40;99.90
4964;DHT22;2497;47.410;9.740;2023-03-16T11:40:28;18.90;99.90
4964;DHT22;2497;47.410;9.740;2023-03-16T11:43:04;19.30;99.90
4964;DHT22;2497;47.410;9.740;2023-03-16T11:45:43;19.10;99.90
4964;DHT22;2497;47.410;9.740;2023-03-16T11:48:23;18.10;99.90
4964;DHT22;2497;47.410;9.740;2023-03-16T11:51:03;18.80;99.90
4964;DHT22;2497;47.410;9.740;2023-03-16T11:53:43;20.30;99.90
4964;DHT22;2497;47.410;9.740;2023-03-16T11:56:20;20.40;99.90
4964;DHT22;2497;47.410;9.740;2023-03-16T11:59:02;20.20;99.90
4964;DHT22;2497;47.410;9.740;2023-03-16T12:01:42;21.40;99.90
4964;DHT22;2497;47.410;9.740;2023-03-16T12:04:24;20.90;99.90
4964;DHT22;2497;47.410;9.740;2023-03-16T12:07:17;21.40;99.90
4964;DHT22;2497;47.410;9.740;2023-03-16T12:10:22;20.80;99.90
4964;DHT22;2497;47.410;9.740;2023-03-16T12:13:01;22.10;99.90
4964;DHT22;2497;47.410;9.740;2023-03-16T12:15:38;22.80;99.90
4964;DHT22;2497;47.410;9.740;2023-03-16T12:18:14;22.20;99.90
4964;DHT22;2497;47.410;9.740;2023-03-16T12:20:50;21.30;99.90
4964;DHT22;2497;47.410;9.740;2023-03-16T12:23:23;21.80;99.90
4964;DHT22;2497;47.410;9.740;2023-03-16T12:25:52;21.60;99.90
4964;DHT22;2497;47.410;9.740;2023-03-16T12:28:24;21.70;99.90
4964;DHT22;2497;47.410;9.740;2023-03-16T12:31:03;21.20;99.90
4964;DHT22;2497;47.410;9.740;2023-03-16T12:33:57;21.60;99.90
4964;DHT22;2497;47.410;9.740;2023-03-16T12:36:44;23.50;99.90
4964;DHT22;2497;47.410;9.740;2023-03-16T12:39:19;24.40;99.90
4964;DHT22;2497;47.410;9.740;2023-03-16T12:42:02;25.70;99.90
4964;DHT22;2497;47.410;9.740;2023-03-16T12:44:34;25.80;99.90
4964;DHT22;2497;47.410;9.740;2023-03-16T12:47:13;25.70;99.90
4964;DHT22;2497;47.410;9.740;2023-03-16T12:49:44;25.70;99.90
4964;DHT22;2497;47.410;9.740;2023-03-16T12:52:13;25.80;99.90
4964;DHT22;2497;47.410;9.740;2023-03-16T12:54:49;24.70;99.90
4964;DHT22;2497;47.410;9.740;2023-03-16T12:57:18;23.00;99.90
4964;DHT22;2497;47.410;9.740;2023-03-16T12:59:47;22.40;99.90
4964;DHT22;2497;47.410;9.740;2023-03-16T13:02:19;22.80;99.90
4964;DHT22;2497;47.410;9.740;2023-03-16T13:04:53;23.40;99.90
4964;DHT22;2497;47.410;9.740;2023-03-16T13:07:23;24.40;99.90
4964;DHT22;2497;47.410;9.740;2023-03-16T13:09:53;25.50;99.90
4964;DHT22;2497;47.410;9.740;2023-03-16T13:12:24;25.00;99.90
4964;DHT22;2497;47.410;9.740;2023-03-16T13:14:55;23.80;99.90
4964;DHT22;2497;47.410;9.740;2023-03-16T13:17:27;23.90;99.90
4964;DHT22;2497;47.410;9.740;2023-03-16T13:20:01;23.80;99.90
4964;DHT22;2497;47.410;9.740;2023-03-16T13:22:41;22.80;99.90
4964;DHT22;2497;47.410;9.740;2023-03-16T13:25:15;22.10;99.90
4964;DHT22;2497;47.410;9.740;2023-03-16T13:27:48;22.30;99.90
4964;DHT22;2497;47.410;9.740;2023-03-16T13:30:18;22.20;99.90
4964;DHT22;2497;47.410;9.740;2023-03-16T13:32:47;22.40;99.90
4964;DHT22;2497;47.410;9.740;2023-03-16T13:35:18;21.40;99.90
4964;DHT22;2497;47.410;9.740;2023-03-16T13:37:47;20.80;99.90
4964;DHT22;2497;47.410;9.740;2023-03-16T13:40:18;21.50;99.90
4964;DHT22;2497;47.410;9.740;2023-03-16T13:42:47;23.00;99.90
4964;DHT22;2497;47.410;9.740;2023-03-16T13:45:19;23.70;99.90
4964;DHT22;2497;47.410;9.740;2023-03-16T13:47:49;22.70;99.90
4964;DHT22;2497;47.410;9.740;2023-03-16T13:50:19;21.90;99.90
4964;DHT22;2497;47.410;9.740;2023-03-16T13:52:57;22.00;99.90
4964;DHT22;2497;47.410;9.740;2023-03-16T13:55:29;22.00;99.90
4964;DHT22;2497;47.410;9.740;2023-03-16T13:57:57;22.40;99.90
4964;DHT22;2497;47.410;9.740;2023-03-16T14:00:29;21.60;99.90
4964;DHT22;2497;47.410;9.740;2023-03-16T14:03:01;21.20;99.90
4964;DHT22;2497;47.410;9.740;2023-03-16T14:05:31;21.90;99.90
4964;DHT22;2497;47.410;9.740;2023-03-16T14:08:00;21.30;99.90
4964;DHT22;2497;47.410;9.740;2023-03-16T14:10:31;19.90;99.90
4964;DHT22;2497;47.410;9.740;2023-03-16T14:13:07;19.90;99.90
4964;DHT22;2497;47.410;9.740;2023-03-16T14:15:35;20.30;99.90
4964;DHT22;2497;47.410;9.740;2023-03-16T14:18:13;20.40;99.90
4964;DHT22;2497;47.410;9.740;2023-03-16T14:20:41;20.80;99.90
4964;DHT22;2497;47.410;9.740;2023-03-16T14:23:16;20.60;99.90
4964;DHT22;2497;47.410;9.740;2023-03-16T14:25:46;19.90;99.90
4964;DHT22;2497;47.410;9.740;2023-03-16T14:28:14;19.30;99.90
4964;DHT22;2497;47.410;9.740;2023-03-16T14:30:49;19.40;99.90
4964;DHT22;2497;47.410;9.740;2023-03-16T14:33:28;19.50;99.90
4964;DHT22;2497;47.410;9.740;2023-03-16T14:35:57;19.70;99.90
4964;DHT22;2497;47.410;9.740;2023-03-16T14:38:29;20.40;99.90
4964;DHT22;2497;47.410;9.740;2023-03-16T14:41:01;20.20;99.90
4964;DHT22;2497;47.410;9.740;2023-03-16T14:43:31;20.20;99.90
4964;DHT22;2497;47.410;9.740;2023-03-16T14:46:02;20.50;99.90
4964;DHT22;2497;47.410;9.740;2023-03-16T14:48:32;19.70;99.90
4964;DHT22;2497;47.410;9.740;2023-03-16T14:51:01;19.20;99.90
4964;DHT22;2497;47.410;9.740;2023-03-16T14:53:29;19.40;99.90
4964;DHT22;2497;47.410;9.740;2023-03-16T14:55:57;20.10;99.90
4964;DHT22;2497;47.410;9.740;2023-03-16T14:58:25;20.70;99.90
4964;DHT22;2497;47.410;9.740;2023-03-16T15:00:53;20.90;99.90
4964;DHT22;2497;47.410;9.740;2023-03-16T15:03:25;20.50;99.90
4964;DHT22;2497;47.410;9.740;2023-03-16T15:05:59;19.60;99.90
4964;DHT22;2497;47.410;9.740;2023-03-16T15:08:27;19.20;99.90
4964;DHT22;2497;47.410;9.740;2023-03-16T15:10:58;18.90;99.90
4964;DHT22;2497;47.410;9.740;2023-03-16T15:13:27;18.30;99.90
4964;DHT22;2497;47.410;9.740;2023-03-16T15:16:18;18.40;99.90
4964;DHT22;2497;47.410;9.740;2023-03-16T15:18:46;18.60;99.90
4964;DHT22;2497;47.410;9.740;2023-03-16T15:21:16;18.30;99.90
4964;DHT22;2497;47.410;9.740;2023-03-16T15:23:45;18.30;99.90
4964;DHT22;2497;47.410;9.740;2023-03-16T15:26:14;18.30;99.90
4964;DHT22;2497;47.410;9.740;2023-03-16T15:28:41;18.40;99.90
4964;DHT22;2497;47.410;9.740;2023-03-16T15:31:11;18.60;99.90
4964;DHT22;2497;47.410;9.740;2023-03-16T15:33:39;18.90;99.90
4964;DHT22;2497;47.410;9.740;2023-03-16T15:36:13;18.80;99.90
4964;DHT22;2497;47.410;9.740;2023-03-16T15:38:44;18.40;99.90
4964;DHT22;2497;47.410;9.740;2023-03-16T15:41:12;17.90;99.90
4964;DHT22;2497;47.410;9.740;2023-03-16T15:43:40;17.90;99.90
4964;DHT22;2497;47.410;9.740;2023-03-16T15:46:09;17.60;99.90
4964;DHT22;2497;47.410;9.740;2023-03-16T15:48:37;18.30;99.90
4964;DHT22;2497;47.410;9.740;2023-03-16T15:51:07;19.00;99.90
4964;DHT22;2497;47.410;9.740;2023-03-16T15:53:37;19.40;99.90
4964;DHT22;2497;47.410;9.740;2023-03-16T15:56:08;20.10;99.90
4964;DHT22;2497;47.410;9.740;2023-03-16T15:58:40;20.50;99.90
4964;DHT22;2497;47.410;9.740;2023-03-16T16:01:18;20.80;99.90
4964;DHT22;2497;47.410;9.740;2023-03-16T16:03:46;20.70;99.90
4964;DHT22;2497;47.410;9.740;2023-03-16T16:06:14;20.70;99.90
4964;DHT22;2497;47.410;9.740;2023-03-16T16:08:42;20.30;99.90
4964;DHT22;2497;47.410;9.740;2023-03-16T16:11:13;19.30;99.90
4964;DHT22;2497;47.410;9.740;2023-03-16T16:13:42;18.50;99.90
4964;DHT22;2497;47.410;9.740;2023-03-16T16:16:11;18.20;99.90
4964;DHT22;2497;47.410;9.740;2023-03-16T16:18:39;17.90;99.90
4964;DHT22;2497;47.410;9.740;2023-03-16T16:21:10;18.50;99.90
4964;DHT22;2497;47.410;9.740;2023-03-16T16:23:39;18.80;99.90
4964;DHT22;2497;47.410;9.740;2023-03-16T16:26:15;18.60;99.90
4964;DHT22;2497;47.410;9.740;2023-03-16T16:28:45;18.80;99.90
4964;DHT22;2497;47.410;9.740;2023-03-16T16:31:13;19.00;99.90
4964;DHT22;2497;47.410;9.740;2023-03-16T16:33:40;19.10;99.90